Time;durP1;ratioP1;P1;durP2;ratioP2;P2;SDS_P1;SDS_P2;PMS_P1;PMS_P2;Temp;Humidity;BMP_temperature;BMP_pressure;BME280_temperature;BME280_humidity;BME280_pressure;Samples;Min_cycle;Max_cycle;Signal;HPM_P1;HPM_P2
2021/03/21 00:00:50;;;;;;;9.55;7.60;;;;;;;7.92;43.21;102107.43;1737872;81;21161;-46
2021/03/21 00:03:19;;;;;;;8.40;7.12;;;;;;;7.90;43.54;102105.25;1738136;81;21161;-50
2021/03/21 00:05:47;;;;;;;8.85;7.67;;;;;;;7.88;43.36;102106.95;1729897;82;21200;-45
2021/03/21 00:08:20;;;;;;;10.75;7.90;;;;;;;7.86;43.26;102106.08;1739946;82;21291;-45
2021/03/21 00:10:59;;;;;;;15.00;8.75;;;;;;;7.83;44.11;102106.02;1687930;83;21172;-44
2021/03/21 00:13:28;;;;;;;11.30;8.80;;;;;;;7.82;44.80;102097.83;1686593;84;21196;-46
2021/03/21 00:15:57;;;;;;;10.45;8.53;;;;;;;7.82;45.50;102097.83;1698907;84;21168;-47
2021/03/21 00:18:29;;;;;;;11.38;8.35;;;;;;;7.84;45.78;102102.59;1698947;84;21168;-48
2021/03/21 00:20:57;;;;;;;10.72;8.58;;;;;;;7.90;45.83;102097.89;1702744;84;21160;-46
2021/03/21 00:23:26;;;;;;;12.28;9.18;;;;;;;7.93;45.80;102096.20;1695566;84;21203;-44
2021/03/21 00:25:54;;;;;;;11.55;9.10;;;;;;;7.91;45.61;102090.13;1695770;84;21365;-44
2021/03/21 00:28:27;;;;;;;12.53;8.55;;;;;;;7.86;45.75;102084.05;1692668;84;21168;-46
2021/03/21 00:30:55;;;;;;;12.75;9.68;;;;;;;7.82;45.93;102084.87;1697486;84;21168;-47
2021/03/21 00:33:27;;;;;;;11.43;8.35;;;;;;;7.80;46.20;102080.09;1696720;84;21597;-47
2021/03/21 00:35:55;;;;;;;11.97;9.55;;;;;;;7.78;46.21;102079.62;1695763;84;21125;-43
2021/03/21 00:38:38;;;;;;;10.98;8.68;;;;;;;7.78;46.57;102075.33;1695387;84;21209;-46
2021/03/21 00:41:16;;;;;;;11.30;9.08;;;;;;;7.84;46.76;102077.10;1762658;79;23984;-42
2021/03/21 00:43:44;;;;;;;11.10;8.80;;;;;;;7.38;47.74;102078.30;1736030;82;21164;-43
2021/03/21 00:46:13;;;;;;;11.08;9.25;;;;;;;7.28;47.95;102077.74;1744599;82;21275;-45
2021/03/21 00:48:43;;;;;;;11.22;8.70;;;;;;;7.23;47.92;102070.36;1732027;82;21286;-47
2021/03/21 00:51:11;;;;;;;10.82;8.93;;;;;;;7.20;48.28;102074.19;1743132;82;21148;-48
2021/03/21 00:53:39;;;;;;;11.73;8.73;;;;;;;7.21;48.62;102071.61;1738161;82;21157;-42
2021/03/21 00:56:09;;;;;;;12.82;9.43;;;;;;;7.20;48.83;102070.30;1737343;82;21301;-46
2021/03/21 00:58:37;;;;;;;14.38;9.80;;;;;;;7.21;48.91;102066.88;1743881;82;21597;-46
2021/03/21 01:01:05;;;;;;;12.35;9.80;;;;;;;7.17;49.02;102064.66;1741877;82;21157;-44
2021/03/21 01:03:34;;;;;;;12.95;10.00;;;;;;;7.14;49.19;102066.34;1735086;82;21192;-44
2021/03/21 01:06:06;;;;;;;12.80;10.18;;;;;;;7.10;49.43;102064.57;1743861;82;21145;-44
2021/03/21 01:08:37;;;;;;;13.50;9.98;;;;;;;7.06;49.53;102060.20;1732098;82;21149;-45
2021/03/21 01:11:20;;;;;;;13.58;10.28;;;;;;;7.03;49.61;102061.02;1744391;82;21605;-47
2021/03/21 01:13:47;;;;;;;14.98;11.53;;;;;;;7.00;49.65;102058.83;1738506;82;21298;-47
2021/03/21 01:16:30;;;;;;;16.67;11.95;;;;;;;6.95;49.89;102057.88;1734352;82;21483;-46
2021/03/21 01:18:59;;;;;;;13.10;10.38;;;;;;;6.91;50.21;102056.10;1742790;82;21165;-47
2021/03/21 01:21:29;;;;;;;12.05;10.13;;;;;;;6.94;50.37;102061.34;1735574;82;21169;-45
2021/03/21 01:23:57;;;;;;;16.02;12.15;;;;;;;6.97;50.40;102058.77;1736256;82;21155;-47
2021/03/21 01:26:27;;;;;;;15.23;11.18;;;;;;;6.97;50.23;102055.77;1742051;82;21113;-50
2021/03/21 01:28:57;;;;;;;14.43;10.88;;;;;;;6.95;50.32;102055.30;1734304;82;21207;-44
2021/03/21 01:31:25;;;;;;;16.60;12.53;;;;;;;6.94;50.58;102044.10;1740030;82;21171;-44
2021/03/21 01:33:54;;;;;;;15.93;12.37;;;;;;;6.91;50.55;102044.46;1738182;82;21326;-43
2021/03/21 01:36:30;;;;;;;14.75;11.60;;;;;;;6.86;50.62;102039.67;1738942;82;21159;-46
2021/03/21 01:39:07;;;;;;;15.00;11.38;;;;;;;6.87;50.71;102038.80;1846906;77;23368;-47
2021/03/21 01:41:38;;;;;;;15.18;11.93;;;;;;;6.80;50.82;102039.58;1813189;78;21603;-49
2021/03/21 01:44:08;;;;;;;;;;;;;;;6.76;51.06;102037.35;1803972;78;21159;-46
2021/03/21 01:46:42;;;;;;;13.28;10.65;;;;;;;6.74;51.33;102033.87;1815758;78;20400;-46
2021/03/21 01:49:23;;;;;;;16.05;11.50;;;;;;;6.71;51.60;102032.56;1764949;81;21182;-48
2021/03/21 01:51:52;;;;;;;14.27;11.47;;;;;;;6.66;51.65;102023.00;1768586;81;21587;-47
2021/03/21 01:54:21;;;;;;;15.32;10.68;;;;;;;6.59;51.88;102028.05;1768329;80;21148;-43
2021/03/21 01:56:49;;;;;;;15.05;11.93;;;;;;;6.57;52.18;102029.75;1768064;80;21182;-42
2021/03/21 01:59:21;;;;;;;13.25;11.00;;;;;;;6.55;52.41;102029.31;1765391;81;21304;-47
2021/03/21 02:01:50;;;;;;;;;;;;;;;6.54;52.47;102031.44;1769233;81;21147;-42
2021/03/21 02:04:19;;;;;;;15.20;11.40;;;;;;;6.53;52.55;102038.31;1768346;80;20428;-46
2021/03/21 02:07:27;;;;;;;13.78;11.63;;;;;;;6.51;52.83;102040.00;1768426;81;21647;-47
2021/03/21 02:10:20;;;;;;;14.73;11.53;;;;;;;6.54;52.86;102039.19;1768066;81;21179;-45
2021/03/21 02:13:18;;;;;;;13.43;11.55;;;;;;;6.53;52.96;102035.73;1756032;81;21146;-47
2021/03/21 02:16:09;;;;;;;14.98;11.18;;;;;;;6.59;53.22;102031.94;1771655;79;23417;-48
2021/03/21 02:19:05;;;;;;;14.80;10.78;;;;;;;6.61;53.11;102037.57;1771655;79;22803;-42
2021/03/21 02:21:42;;;;;;;14.13;11.03;;;;;;;6.53;52.18;102040.90;1734782;82;21475;-43
2021/03/21 02:24:24;;;;;;;14.93;11.93;;;;;;;6.47;51.63;102025.30;1686200;84;21648;-49
2021/03/21 02:27:16;;;;;;;14.60;11.78;;;;;;;6.42;51.63;102023.08;1670746;85;21273;-45
2021/03/21 02:29:58;;;;;;;17.55;12.07;;;;;;;6.38;51.71;102024.30;1684695;84;21215;-44
2021/03/21 02:32:54;;;;;;;15.55;12.93;;;;;;;6.35;51.44;102022.53;1810148;79;22503;-46
2021/03/21 02:35:28;;;;;;;16.52;12.80;;;;;;;6.28;51.62;102027.17;1778127;80;21208;-42
2021/03/21 02:38:28;;;;;;;15.05;11.65;;;;;;;6.23;51.31;102019.75;1695713;83;21330;-47
2021/03/21 02:41:02;;;;;;;16.60;13.10;;;;;;;6.20;51.30;102015.81;1695552;84;21249;-47
2021/03/21 02:43:35;;;;;;;14.18;11.83;;;;;;;6.19;51.73;102015.38;1706757;84;21197;-48
2021/03/21 02:46:08;;;;;;;15.32;12.47;;;;;;;6.20;51.89;102022.27;1706956;84;21176;-42
2021/03/21 02:48:51;;;;;;;16.17;13.53;;;;;;;6.22;52.01;102018.00;1771605;79;22737;-46
2021/03/21 02:51:29;;;;;;;14.80;12.93;;;;;;;6.17;51.76;102020.95;1732214;82;21113;-46
2021/03/21 02:54:17;;;;;;;15.32;12.55;;;;;;;6.15;51.68;102014.89;1662374;86;21197;-46
2021/03/21 02:56:56;;;;;;;17.80;14.30;;;;;;;6.20;51.83;102013.67;1771575;79;22975;-46
2021/03/21 02:59:30;;;;;;;17.15;13.85;;;;;;;6.14;51.99;102017.01;1715375;82;21210;-45
2021/03/21 03:02:11;;;;;;;16.00;12.45;;;;;;;6.14;52.00;102014.42;1809908;79;23002;-43
2021/03/21 03:04:43;;;;;;;19.50;13.25;;;;;;;6.07;52.07;102008.73;1783946;80;21183;-45
2021/03/21 03:07:41;;;;;;;16.23;13.00;;;;;;;6.06;52.46;102015.17;1776733;80;21584;-46
2021/03/21 03:10:22;;;;;;;17.48;13.13;;;;;;;6.04;52.18;102011.25;1725627;83;21195;-42
2021/03/21 03:13:07;;;;;;;18.15;16.27;;;;;;;6.08;52.46;102003.99;1792206;79;28096;-46
2021/03/21 03:15:35;;;;;;;16.87;14.20;;;;;;;6.10;52.72;102011.80;1686609;84;21183;-44
2021/03/21 03:18:18;;;;;;;16.82;14.50;;;;;;;6.36;52.31;102003.60;1727217;82;21234;-47
2021/03/21 03:20:55;;;;;;;15.88;13.22;;;;;;;6.68;51.33;102005.34;1771541;79;22911;-46
2021/03/21 03:24:00;;;;;;;15.90;13.30;;;;;;;6.66;51.27;102007.48;1745199;82;21157;-44
2021/03/21 03:26:52;;;;;;;19.48;14.00;;;;;;;6.67;51.34;102009.20;1747491;82;21137;-46
2021/03/21 03:29:42;;;;;;;17.45;12.90;;;;;;;6.67;51.51;102011.38;1810999;79;21140;-47
2021/03/21 03:32:13;;;;;;;17.23;13.93;;;;;;;6.61;51.70;102017.76;1779731;80;21112;-44
2021/03/21 03:34:53;;;;;;;17.80;14.43;;;;;;;6.58;51.63;102018.58;1782547;80;21269;-45
2021/03/21 03:37:23;;;;;;;18.48;13.70;;;;;;;6.55;51.69;102015.93;1776834;80;21174;-46
2021/03/21 03:39:51;;;;;;;16.45;13.53;;;;;;;6.52;51.86;102013.31;1773468;80;21134;-46
2021/03/21 03:42:33;;;;;;;18.60;13.75;;;;;;;6.52;52.20;102008.15;1779113;80;21576;-42
2021/03/21 03:45:34;;;;;;;19.20;14.65;;;;;;;6.52;52.21;102010.73;1776160;80;21108;-45
2021/03/21 03:48:30;;;;;;;19.80;14.98;;;;;;;6.53;52.41;102007.73;1697040;84;21186;-46
2021/03/21 03:51:29;;;;;;;16.80;13.80;;;;;;;6.52;52.30;102013.31;1702226;83;21618;-46
2021/03/21 03:54:21;;;;;;;17.45;14.10;;;;;;;6.54;52.46;102016.80;1698768;84;21575;-47
2021/03/21 03:57:12;;;;;;;17.62;13.15;;;;;;;6.58;52.37;102021.16;1701381;84;21669;-46
2021/03/21 04:00:04;;;;;;;20.15;15.72;;;;;;;6.55;52.34;102023.69;1700824;84;21170;-47
2021/03/21 04:02:49;;;;;;;19.42;16.07;;;;;;;6.48;52.24;102016.70;1683781;84;21307;-46
2021/03/21 04:05:34;;;;;;;18.87;14.80;;;;;;;6.45;52.38;102031.31;1700783;84;21190;-46
2021/03/21 04:08:46;;;;;;;20.32;15.03;;;;;;;6.41;52.19;102031.67;1691088;84;21323;-42
2021/03/21 04:11:49;;;;;;;19.25;14.53;;;;;;;6.39;52.33;102026.89;1698698;84;21221;-45
2021/03/21 04:14:32;;;;;;;18.17;14.95;;;;;;;6.36;52.55;102024.28;1701169;84;21162;-46
2021/03/21 04:17:40;;;;;;;22.75;16.25;;;;;;;6.33;52.52;102028.09;1690328;84;21608;-43
2021/03/21 04:20:37;;;;;;;19.40;15.15;;;;;;;6.37;52.72;102026.00;1803349;79;22962;-46
2021/03/21 04:23:18;;;;;;;29.92;24.60;;;;;;;6.38;52.71;102029.47;1755725;79;39052;-41
2021/03/21 04:25:55;;;;;;;22.32;17.45;;;;;;;6.37;52.77;102027.30;1664217;84;21211;-45
2021/03/21 04:28:32;;;;;;;19.10;15.90;;;;;;;6.41;52.66;102017.45;1655737;86;21231;-46
2021/03/21 04:31:06;;;;;;;19.17;15.53;;;;;;;6.44;52.48;102018.80;1771725;79;22949;-46
2021/03/21 04:33:38;;;;;;;17.85;14.68;;;;;;;6.38;52.51;102025.17;1739189;82;21176;-47
2021/03/21 04:36:12;;;;;;;21.80;16.77;;;;;;;6.37;52.49;102020.84;1737181;82;21144;-48
2021/03/21 04:38:49;;;;;;;20.00;15.53;;;;;;;6.33;52.69;102021.63;1695273;84;21195;-45
2021/03/21 04:41:25;;;;;;;18.37;14.75;;;;;;;6.36;53.07;102025.98;1819922;79;22648;-46
2021/03/21 04:44:15;;;;;;;19.73;15.72;;;;;;;6.31;53.03;102023.74;1792209;80;21180;-42
2021/03/21 04:46:51;;;;;;;22.22;17.30;;;;;;;6.32;53.28;102027.67;1786817;80;21728;-41
2021/03/21 04:49:20;;;;;;;20.27;16.07;;;;;;;6.34;53.53;102031.14;1685594;85;21644;-46
2021/03/21 04:51:48;;;;;;;21.42;16.32;;;;;;;6.34;53.46;102031.14;1685332;85;21196;-47
2021/03/21 04:54:25;;;;;;;17.10;14.58;;;;;;;6.36;53.51;102029.45;1685283;85;21317;-44
2021/03/21 04:57:27;;;;;;;19.48;15.95;;;;;;;6.43;53.20;102022.22;1771481;79;22946;-42
2021/03/21 04:59:56;;;;;;;24.50;17.55;;;;;;;6.40;53.07;102024.77;1734991;82;21290;-46
2021/03/21 05:02:30;;;;;;;18.75;15.45;;;;;;;6.37;53.07;102023.42;1738323;82;21168;-46
2021/03/21 05:05:03;;;;;;;18.37;15.58;;;;;;;6.36;52.92;102026.87;1730975;81;21730;-46
2021/03/21 05:07:39;;;;;;;22.13;16.35;;;;;;;6.33;53.00;102026.80;1741131;82;21165;-46
2021/03/21 05:10:32;;;;;;;18.92;15.13;;;;;;;6.32;53.00;102031.95;1734522;82;21282;-47
2021/03/21 05:13:22;;;;;;;19.50;15.80;;;;;;;6.30;52.97;102025.48;1676743;85;21183;-43
2021/03/21 05:16:20;;;;;;;19.67;14.47;;;;;;;6.33;53.26;102013.88;1673477;85;21212;-45
2021/03/21 05:19:26;;;;;;;17.45;15.20;;;;;;;6.45;53.20;102010.63;1767811;79;22966;-47
2021/03/21 05:22:20;;;;;;;20.20;15.50;;;;;;;6.39;53.27;102013.97;1732007;82;21156;-43
2021/03/21 05:25:19;;;;;;;22.50;15.95;;;;;;;6.41;53.18;102016.16;1739327;82;21141;-44
2021/03/21 05:28:01;;;;;;;21.00;16.70;;;;;;;6.41;53.14;102016.16;1741232;82;21145;-50
2021/03/21 05:30:32;;;;;;;20.88;16.10;;;;;;;6.40;53.39;102024.77;1735641;82;21185;-46
2021/03/21 05:32:59;;;;;;;18.90;15.85;;;;;;;6.39;53.12;102028.19;1744603;82;21169;-44
2021/03/21 05:35:32;;;;;;;21.48;16.05;;;;;;;6.36;53.31;102021.70;1731956;82;21160;-46
2021/03/21 05:38:28;;;;;;;18.90;15.20;;;;;;;6.32;53.16;102019.91;1730177;81;21167;-46
2021/03/21 05:41:10;;;;;;;20.82;15.78;;;;;;;6.32;53.51;102019.03;1725514;83;21192;-46
2021/03/21 05:44:16;;;;;;;22.40;15.90;;;;;;;6.36;53.35;102024.70;1722185;83;21128;-42
2021/03/21 05:46:55;;;;;;;18.82;14.18;;;;;;;6.37;52.85;102028.59;1725334;83;21302;-45
2021/03/21 05:50:08;;;;;;;21.42;15.72;;;;;;;6.36;53.03;102029.45;1725431;83;21329;-43
2021/03/21 05:53:18;;;;;;;20.57;15.70;;;;;;;6.39;52.73;102032.06;1802129;79;22936;-46
2021/03/21 05:56:05;;;;;;;20.62;14.90;;;;;;;6.32;52.51;102031.95;1773794;80;21180;-45
2021/03/21 05:59:04;;;;;;;20.60;15.35;;;;;;;6.25;52.67;102024.52;1770298;80;21129;-45
2021/03/21 06:02:26;;;;;;;20.88;13.95;;;;;;;6.22;52.28;102020.58;1708152;83;21333;-48
2021/03/21 06:05:37;;;;;;;20.95;14.70;;;;;;;6.26;53.12;102005.60;1762720;79;23445;-45
2021/03/21 06:08:36;;;;;;;19.92;15.75;;;;;;;6.30;52.96;102013.84;1737174;82;21291;-42
2021/03/21 06:11:19;;;;;;;19.42;15.10;;;;;;;6.40;52.97;102013.14;1738866;82;21569;-46
2021/03/21 06:14:10;;;;;;;18.75;15.05;;;;;;;6.65;53.14;102009.20;1770662;79;23105;-47
2021/03/21 06:17:02;;;;;;;20.15;15.32;;;;;;;6.91;52.92;102006.94;1741465;82;21585;-45
2021/03/21 06:20:16;;;;;;;19.05;13.80;;;;;;;7.25;51.84;102013.84;1748439;82;21153;-45
2021/03/21 06:23:27;;;;;;;19.50;15.00;;;;;;;7.45;51.47;102014.50;1737257;82;21164;-47
2021/03/21 06:26:06;;;;;;;18.32;15.00;;;;;;;7.55;51.14;102024.98;1738482;82;21136;-47
2021/03/21 06:28:55;;;;;;;19.90;15.03;;;;;;;7.68;50.61;102029.45;1738666;82;21152;-43
2021/03/21 06:32:02;;;;;;;19.98;15.72;;;;;;;7.88;50.32;102034.40;1735409;82;21743;-44
2021/03/21 06:34:44;;;;;;;24.27;16.55;;;;;;;8.13;49.54;102033.77;1741595;82;21585;-43
2021/03/21 06:37:40;;;;;;;21.48;15.68;;;;;;;8.19;49.22;102029.05;1741280;82;21144;-43
2021/03/21 06:40:48;;;;;;;22.17;15.88;;;;;;;8.18;49.10;102038.55;1737169;82;21175;-46
2021/03/21 06:43:44;;;;;;;21.20;16.57;;;;;;;8.24;48.94;102032.11;1740899;82;21141;-46
2021/03/21 06:46:33;;;;;;;17.73;15.38;;;;;;;8.38;48.22;102032.69;1661197;85;21329;-46
2021/03/21 06:49:21;;;;;;;19.60;15.63;;;;;;;8.46;48.07;102037.50;1661254;86;21318;-46
2021/03/21 06:52:34;;;;;;;15.80;13.05;;;;;;;8.61;48.01;102037.20;1661217;86;21426;-46
2021/03/21 06:55:12;;;;;;;15.55;13.22;;;;;;;8.85;46.70;102039.94;1661409;86;21180;-45
2021/03/21 06:58:17;;;;;;;16.48;12.30;;;;;;;9.01;46.54;102039.58;1661140;86;21203;-42
2021/03/21 07:01:10;;;;;;;16.45;12.28;;;;;;;9.09;46.44;102041.77;1654626;86;21215;-43
2021/03/21 07:04:03;;;;;;;16.20;12.53;;;;;;;9.25;45.93;102037.11;1661218;86;21180;-48
2021/03/21 07:06:40;;;;;;;17.80;13.10;;;;;;;9.36;45.50;102033.22;1661325;86;21168;-45
2021/03/21 07:09:48;;;;;;;17.48;12.73;;;;;;;9.55;45.85;102029.41;1655645;85;21126;-42
2021/03/21 07:12:32;;;;;;;16.10;13.88;;;;;;;9.79;45.22;102022.95;1663392;85;21195;-46
2021/03/21 07:15:11;;;;;;;15.03;12.70;;;;;;;10.00;44.40;102009.11;1669947;86;21321;-43
2021/03/21 07:17:57;;;;;;;15.55;12.03;;;;;;;10.15;43.77;102009.58;1671218;86;21192;-49
2021/03/21 07:21:05;;;;;;;15.23;12.35;;;;;;;10.22;43.42;102002.22;1671130;86;21172;-42
2021/03/21 07:24:19;;;;;;;15.75;12.28;;;;;;;10.25;43.17;102005.68;1720379;81;21208;-43
2021/03/21 07:27:01;;;;;;;13.45;11.05;;;;;;;10.25;43.58;102005.68;1743133;81;21208;-47
2021/03/21 07:29:54;;;;;;;11.90;10.35;;;;;;;10.38;43.56;102014.34;1747682;81;21133;-44
2021/03/21 07:32:53;;;;;;;14.25;11.35;;;;;;;10.48;43.28;102014.77;1744705;81;21662;-45
2021/03/21 07:36:05;;;;;;;11.78;9.65;;;;;;;10.50;42.40;102020.83;1756147;81;21187;-45
2021/03/21 07:38:53;;;;;;;13.95;11.18;;;;;;;10.47;42.31;102024.73;1744959;80;21290;-42
2021/03/21 07:41:57;;;;;;;15.15;10.63;;;;;;;10.33;41.79;102026.05;1746166;81;21179;-47
2021/03/21 07:44:42;;;;;;;13.35;10.15;;;;;;;10.13;41.95;102023.02;1746562;81;21136;-43
2021/03/21 07:47:46;;;;;;;15.32;10.98;;;;;;;9.93;42.09;102010.41;1745835;81;21157;-42
2021/03/21 07:50:36;;;;;;;12.45;10.30;;;;;;;9.76;43.11;102012.56;1749362;81;21592;-44
2021/03/21 07:53:19;;;;;;;11.18;9.45;;;;;;;9.71;43.15;102010.80;1642027;87;21189;-43
2021/03/21 07:56:23;;;;;;;12.47;10.48;;;;;;;9.75;43.16;101997.82;1816286;79;22970;-47
2021/03/21 07:59:01;;;;;;;11.88;9.45;;;;;;;9.69;42.87;101992.61;1781332;80;21133;-47
2021/03/21 08:01:31;;;;;;;13.10;9.90;;;;;;;9.67;42.90;101996.95;1791349;80;21164;-46
2021/03/21 08:04:26;;;;;;;12.20;9.90;;;;;;;9.64;43.29;101994.33;1753248;80;21574;-46
2021/03/21 08:07:05;;;;;;;12.95;10.53;;;;;;;9.60;43.50;101987.39;1784262;80;21152;-45
2021/03/21 08:09:37;;;;;;;12.53;9.93;;;;;;;9.55;43.25;101989.13;1678574;84;21196;-43
2021/03/21 08:12:37;;;;;;;11.70;9.98;;;;;;;9.52;43.52;101983.91;1690682;84;21263;-42
2021/03/21 08:15:21;;;;;;;11.00;9.58;;;;;;;9.48;43.53;101987.38;1678835;85;21164;-42
2021/03/21 08:18:14;;;;;;;12.78;10.60;;;;;;;9.48;42.85;101988.67;1767073;79;23369;-48
2021/03/21 08:20:52;;;;;;;11.85;9.55;;;;;;;9.44;43.09;101980.44;1743882;82;21144;-46
2021/03/21 08:23:39;;;;;;;10.15;8.33;;;;;;;9.45;42.79;101976.98;1693628;84;21203;-43
2021/03/21 08:26:12;;;;;;;9.38;7.85;;;;;;;9.51;42.37;101980.89;1693032;84;21230;-47
2021/03/21 08:29:14;;;;;;;10.00;8.00;;;;;;;9.54;41.84;101974.39;1697356;84;21207;-45
2021/03/21 08:32:10;;;;;;;8.25;7.28;;;;;;;9.63;42.31;101974.42;1789817;79;28279;-42
2021/03/21 08:34:46;;;;;;;9.18;7.22;;;;;;;9.68;40.41;101980.50;1770096;80;21180;-47
2021/03/21 08:37:34;;;;;;;9.33;6.75;;;;;;;9.74;39.68;101968.81;1687063;85;21701;-44
2021/03/21 08:40:28;;;;;;;9.33;7.47;;;;;;;9.77;39.56;101972.70;1687057;85;21652;-46
2021/03/21 08:43:23;;;;;;;8.08;7.12;;;;;;;9.83;40.17;101971.82;1676504;85;21314;-46
2021/03/21 08:46:08;;;;;;;8.23;6.12;;;;;;;9.91;40.71;101970.55;1679044;85;21184;-46
2021/03/21 08:48:40;;;;;;;6.92;6.05;;;;;;;9.92;39.13;101965.77;1686842;85;21314;-46
2021/03/21 08:51:17;;;;;;;9.18;6.40;;;;;;;9.93;38.88;101960.59;1686850;85;21176;-42
2021/03/21 08:54:02;;;;;;;7.40;6.05;;;;;;;9.97;39.15;101954.95;1676530;85;21172;-42
2021/03/21 08:56:32;;;;;;;6.25;5.62;;;;;;;9.99;37.95;101953.21;1677193;85;21197;-43
2021/03/21 08:59:28;;;;;;;7.53;5.97;;;;;;;9.93;38.05;101949.31;1686873;85;21207;-43
2021/03/21 09:02:15;;;;;;;7.62;6.47;;;;;;;9.89;38.15;101944.98;1686642;85;21220;-47
2021/03/21 09:05:03;;;;;;;7.15;6.37;;;;;;;9.85;38.80;101938.47;1675150;85;21204;-43
2021/03/21 09:07:35;;;;;;;7.62;6.33;;;;;;;9.83;38.45;101945.41;1677185;85;21192;-46
2021/03/21 09:10:18;;;;;;;7.50;6.50;;;;;;;9.85;38.35;101931.09;1778398;79;22966;-47
2021/03/21 09:13:02;;;;;;;7.35;5.92;;;;;;;9.81;38.26;101935.44;1739056;82;21168;-46
2021/03/21 09:15:43;;;;;;;11.00;7.90;;;;;;;9.79;38.17;101934.58;1702699;84;21174;-45
2021/03/21 09:18:23;;;;;;;9.15;8.20;;;;;;;9.83;38.70;101932.41;1795226;79;27790;-46
2021/03/21 09:21:22;;;;;;;7.55;5.90;;;;;;;9.82;38.38;101929.39;1777450;80;21168;-47
2021/03/21 09:24:07;;;;;;;5.80;4.95;;;;;;;9.88;37.61;101932.41;1776087;80;21167;-42
2021/03/21 09:26:45;;;;;;;8.80;6.50;;;;;;;9.92;37.06;101928.06;1766710;80;21148;-42
2021/03/21 09:29:30;;;;;;;10.00;8.63;;;;;;;9.95;38.63;101931.98;1777604;80;21313;-45
2021/03/21 09:32:05;;;;;;;8.38;6.83;;;;;;;9.99;39.87;101928.52;1778420;80;21167;-44
2021/03/21 09:34:48;;;;;;;6.78;6.08;;;;;;;10.07;39.81;101934.56;1777409;80;21156;-42
2021/03/21 09:37:19;;;;;;;5.83;5.03;;;;;;;10.15;37.54;101936.33;1778132;80;21152;-47
2021/03/21 09:39:58;;;;;;;5.53;4.92;;;;;;;10.19;36.79;101928.08;1786476;78;21132;-46
2021/03/21 09:42:26;;;;;;;9.05;5.87;;;;;;;10.24;35.77;101932.86;1777689;78;21152;-46
2021/03/21 09:44:55;;;;;;;8.28;5.33;;;;;;;10.26;36.18;101931.11;1772917;78;21133;-49
2021/03/21 09:47:43;;;;;;;6.97;6.15;;;;;;;10.26;35.66;101932.42;1795442;78;21560;-47
2021/03/21 09:50:39;;;;;;;8.15;5.30;;;;;;;10.27;37.53;101925.03;1741912;81;21130;-46
2021/03/21 09:53:36;;;;;;;6.20;5.25;;;;;;;10.31;37.37;101924.16;1654873;85;21647;-45
2021/03/21 09:56:21;;;;;;;8.60;5.60;;;;;;;10.37;36.82;101917.63;1677567;85;21197;-43
2021/03/21 09:59:30;;;;;;;5.53;4.95;;;;;;;10.46;36.45;101911.98;1796223;79;22943;-47
2021/03/21 10:02:22;;;;;;;6.80;5.72;;;;;;;10.44;36.54;101908.95;1765972;80;21568;-46
2021/03/21 10:04:56;;;;;;;8.08;5.25;;;;;;;10.46;36.04;101898.11;1789058;80;21160;-52
2021/03/21 10:07:38;;;;;;;7.33;5.42;;;;;;;10.49;37.21;101889.84;1701985;83;21206;-44
2021/03/21 10:10:18;;;;;;;6.45;5.50;;;;;;;10.55;36.73;101887.67;1694180;83;21313;-48
2021/03/21 10:12:51;;;;;;;5.55;4.70;;;;;;;10.67;36.08;101882.42;1816704;79;22931;-46
2021/03/21 10:15:26;;;;;;;8.88;5.05;;;;;;;10.68;36.72;101884.13;1773706;80;21135;-47
2021/03/21 10:18:01;;;;;;;5.75;5.12;;;;;;;10.74;35.60;101884.10;1779326;80;21166;-43
2021/03/21 10:21:03;;;;;;;6.67;5.30;;;;;;;10.80;35.78;101886.67;1753186;82;21191;-44
2021/03/21 10:23:58;;;;;;;;;;;;;;;10.83;35.73;101877.99;1754724;82;21597;-45
2021/03/21 10:26:31;;;;;;;16.85;6.53;;;;;;;10.88;35.88;101882.30;1753245;81;20311;-44
2021/03/21 10:29:18;;;;;;;7.40;5.22;;;;;;;10.98;36.31;101872.72;1750996;81;21274;-41
2021/03/21 10:31:46;;;;;;;5.55;4.80;;;;;;;11.10;36.35;101871.34;1746882;81;21634;-45
2021/03/21 10:34:22;;;;;;;5.85;4.80;;;;;;;11.20;36.94;101866.06;1750036;82;21345;-42
2021/03/21 10:36:50;;;;;;;6.80;5.08;;;;;;;11.30;36.58;101862.52;1747041;81;21196;-46
2021/03/21 10:39:26;;;;;;;13.40;5.97;;;;;;;11.38;36.20;101854.20;1730328;82;21175;-46
2021/03/21 10:42:07;;;;;;;6.72;5.12;;;;;;;11.46;35.66;101852.83;1742350;81;21175;-43
2021/03/21 10:44:43;;;;;;;6.90;4.67;;;;;;;11.53;35.47;101853.22;1743097;81;21548;-45
2021/03/21 10:47:26;;;;;;;6.72;5.03;;;;;;;11.58;35.67;101846.67;1754388;81;21212;-47
2021/03/21 10:50:07;;;;;;;6.45;5.37;;;;;;;11.69;36.01;101843.54;1819971;79;23427;-47
2021/03/21 10:52:40;;;;;;;8.58;5.37;;;;;;;11.73;36.00;101849.15;1704143;83;21668;-48
2021/03/21 10:55:22;;;;;;;13.83;6.25;;;;;;;11.76;36.07;101832.19;1668832;85;21196;-47
2021/03/21 10:57:59;;;;;;;6.92;5.35;;;;;;;11.82;35.46;101835.61;1667699;85;21207;-47
2021/03/21 11:00:31;;;;;;;7.78;5.67;;;;;;;11.87;34.99;101826.44;1667491;84;21346;-46
2021/03/21 11:03:10;;;;;;;6.62;5.67;;;;;;;11.87;34.67;101818.16;1667860;85;21588;-42
2021/03/21 11:05:45;;;;;;;6.62;5.58;;;;;;;11.89;34.98;101816.86;1667705;85;21159;-43
2021/03/21 11:08:29;;;;;;;7.08;6.00;;;;;;;11.91;34.99;101813.80;1667707;85;21628;-42
2021/03/21 11:11:18;;;;;;;4.90;4.42;;;;;;;11.91;34.70;101810.72;1667926;84;21709;-46
2021/03/21 11:13:49;;;;;;;9.08;5.75;;;;;;;11.93;34.71;101808.12;1667811;85;21172;-46
2021/03/21 11:16:22;;;;;;;6.12;4.78;;;;;;;11.95;34.53;101793.31;1664955;84;21253;-47
2021/03/21 11:18:54;;;;;;;7.60;5.53;;;;;;;11.95;34.48;101789.41;1660995;85;21141;-43
2021/03/21 11:21:32;;;;;;;6.58;5.22;;;;;;;11.98;34.64;101785.01;1771614;79;23398;-47
2021/03/21 11:24:29;;;;;;;10.90;5.28;;;;;;;11.96;34.22;101787.20;1740151;82;21140;-45
2021/03/21 11:27:00;;;;;;;7.30;5.50;;;;;;;11.99;34.18;101779.36;1740341;82;21112;-47
2021/03/21 11:29:36;;;;;;;9.48;5.22;;;;;;;12.04;34.11;101777.55;1738626;81;21148;-43
2021/03/21 11:32:26;;;;;;;8.58;5.45;;;;;;;12.06;33.91;101773.17;1737349;82;21116;-44
2021/03/21 11:35:03;;;;;;;10.85;5.60;;;;;;;12.07;33.85;101774.48;1736934;82;21156;-48
2021/03/21 11:37:37;;;;;;;8.35;5.25;;;;;;;12.04;33.35;101768.41;1738730;82;21191;-48
2021/03/21 11:40:26;;;;;;;7.60;5.28;;;;;;;12.00;33.51;101766.72;1739150;82;21568;-46
2021/03/21 11:43:24;;;;;;;8.83;5.22;;;;;;;11.94;33.53;101762.45;1739173;82;21144;-46
2021/03/21 11:45:52;;;;;;;6.03;5.42;;;;;;;11.93;34.28;101757.27;1733189;82;21157;-44
2021/03/21 11:48:34;;;;;;;7.72;4.65;;;;;;;11.85;34.39;101747.36;1740755;82;21139;-47
2021/03/21 11:51:05;;;;;;;10.00;5.40;;;;;;;11.81;34.47;101754.80;1699622;82;21314;-43
2021/03/21 11:53:35;;;;;;;5.80;5.08;;;;;;;11.73;34.54;101743.55;1699943;83;21156;-47
2021/03/21 11:56:14;;;;;;;5.47;4.90;;;;;;;11.66;34.66;101732.75;1704843;83;21136;-43
2021/03/21 11:58:50;;;;;;;5.72;5.12;;;;;;;11.63;34.62;101731.46;1699959;83;21136;-44
2021/03/21 12:01:41;;;;;;;8.35;5.20;;;;;;;11.61;34.98;101717.58;1808481;79;22817;-43
2021/03/21 12:04:12;;;;;;;5.83;4.70;;;;;;;11.52;35.10;101721.61;1780082;80;21176;-49
2021/03/21 12:06:48;;;;;;;5.58;5.05;;;;;;;11.42;35.16;101717.78;1780020;80;21148;-47
2021/03/21 12:09:38;;;;;;;6.80;5.40;;;;;;;11.34;34.99;101713.08;1776949;80;21148;-46
2021/03/21 12:12:32;;;;;;;6.35;5.10;;;;;;;11.28;35.34;101713.14;1694133;84;21199;-45
2021/03/21 12:15:13;;;;;;;6.35;4.87;;;;;;;11.29;36.06;101700.52;1811409;79;22856;-45
2021/03/21 12:17:48;;;;;;;7.03;4.75;;;;;;;11.31;36.46;101692.25;1819946;79;23422;-46
2021/03/21 12:20:45;;;;;;;6.95;4.80;;;;;;;11.29;36.32;101697.92;1780637;80;21188;-46
2021/03/21 12:23:29;;;;;;;5.72;4.90;;;;;;;11.33;36.24;101693.56;1775840;80;21140;-50
2021/03/21 12:26:20;;;;;;;6.08;5.10;;;;;;;11.37;36.24;101688.28;1714664;83;21204;-47
2021/03/21 12:29:08;;;;;;;5.80;4.80;;;;;;;11.40;36.22;101690.87;1721013;83;21145;-49
2021/03/21 12:31:41;;;;;;;6.17;5.20;;;;;;;11.49;35.57;101695.13;1771627;79;23009;-46
2021/03/21 12:34:38;;;;;;;5.33;4.83;;;;;;;11.44;35.68;101688.66;1738938;82;21175;-43